Time;durP1;ratioP1;P1;durP2;ratioP2;P2;SDS_P1;SDS_P2;PMS_P1;PMS_P2;Temp;Humidity;BMP_temperature;BMP_pressure;BME280_temperature;BME280_humidity;BME280_pressure;Samples;Min_cycle;Max_cycle;Signal;HPM_P1;HPM_P2
2023/08/05 00:00:07;;;;;;;2.65;1.10;;;;;;;15.88;61.24;99902.41;10331126;28;20180;-58
2023/08/05 00:05:09;;;;;;;2.50;1.30;;;;;;;15.80;61.72;99907.47;10328236;28;20176;-57
2023/08/05 00:10:11;;;;;;;2.58;1.50;;;;;;;15.66;61.91;99900.69;10321617;28;20052;-58
2023/08/05 00:15:13;;;;;;;3.05;1.58;;;;;;;15.64;62.05;99900.00;10322374;28;20133;-58
2023/08/05 00:20:15;;;;;;;3.05;1.25;;;;;;;15.54;62.29;99899.06;10339240;28;20093;-58
2023/08/05 00:25:18;;;;;;;3.60;1.25;;;;;;;15.43;62.38;99906.94;10338826;28;20100;-58
2023/08/05 00:30:20;;;;;;;1.65;1.20;;;;;;;15.33;62.51;99898.09;10337530;28;20493;-57
2023/08/05 00:35:23;;;;;;;7.53;2.22;;;;;;;15.27;62.64;99898.59;10339023;28;20397;-59
2023/08/05 00:40:25;;;;;;;1.85;1.23;;;;;;;15.15;62.90;99903.03;10332678;28;20561;-59
2023/08/05 00:45:27;;;;;;;5.00;1.40;;;;;;;14.98;63.36;99900.88;10339255;28;20564;-59
2023/08/05 00:50:32;;;;;;;2.22;1.38;;;;;;;14.91;63.71;99904.13;10335821;28;20046;-59
2023/08/05 00:55:34;;;;;;;5.78;2.08;;;;;;;14.96;63.42;99915.97;10339428;28;20053;-59
2023/08/05 01:00:36;;;;;;;3.33;1.35;;;;;;;14.95;63.34;99916.09;10332880;28;20468;-59
2023/08/05 01:05:39;;;;;;;2.45;1.40;;;;;;;14.91;63.56;99907.59;10338463;28;20128;-59
2023/08/05 01:10:43;;;;;;;2.58;1.45;;;;;;;14.90;63.31;99923.53;10341225;28;20037;-59
2023/08/05 01:15:45;;;;;;;2.13;1.35;;;;;;;14.78;63.58;99935.00;10345130;28;20402;-59
2023/08/05 01:20:52;;;;;;;1.90;1.30;;;;;;;14.70;63.85;99935.56;10344752;28;20053;-59
2023/08/05 01:25:55;;;;;;;2.92;1.30;;;;;;;14.76;63.82;99934.28;10344141;28;20042;-59
2023/08/05 01:31:00;;;;;;;3.20;1.50;;;;;;;14.70;63.76;99945.25;10343864;28;20748;-61
2023/08/05 01:36:04;;;;;;;4.65;1.40;;;;;;;14.66;63.92;99930.66;10330368;28;20065;-58
2023/08/05 01:41:06;;;;;;;2.83;1.42;;;;;;;14.52;64.15;99924.66;10342719;28;20144;-58
2023/08/05 01:46:09;;;;;;;2.03;1.15;;;;;;;14.44;64.39;99924.38;10343510;28;20283;-58
2023/08/05 01:51:11;;;;;;;3.03;1.60;;;;;;;14.41;64.61;99911.44;10344249;28;20038;-58
2023/08/05 01:56:13;;;;;;;2.63;1.50;;;;;;;14.35;64.62;99911.09;10345012;28;20107;-58
2023/08/05 02:01:15;;;;;;;2.90;1.50;;;;;;;14.32;64.74;99899.00;10341963;28;20052;-58
2023/08/05 02:06:17;;;;;;;2.90;1.60;;;;;;;14.28;64.68;99889.66;10348757;28;20049;-58
2023/08/05 02:11:19;;;;;;;2.20;1.30;;;;;;;14.23;64.73;99891.78;10350371;28;20498;-58
2023/08/05 02:16:21;;;;;;;4.70;1.52;;;;;;;14.13;65.04;99893.44;10348563;28;20049;-58
2023/08/05 02:21:24;;;;;;;4.78;1.63;;;;;;;14.04;65.08;99888.88;10351346;28;20153;-58
2023/08/05 02:26:27;;;;;;;3.92;1.60;;;;;;;14.01;65.01;99891.72;10345500;28;20577;-58
2023/08/05 02:31:28;;;;;;;4.22;1.52;;;;;;;13.95;64.99;99891.34;10347004;28;20501;-60
2023/08/05 02:36:31;;;;;;;2.40;1.75;;;;;;;13.93;64.96;99885.34;10349533;28;20127;-60
2023/08/05 02:41:33;;;;;;;1.98;1.20;;;;;;;13.95;64.90;99886.91;10346259;28;20053;-58
2023/08/05 02:46:35;;;;;;;1.77;1.35;;;;;;;13.61;65.18;99887.72;10349062;28;20073;-57
2023/08/05 02:51:37;;;;;;;2.38;1.30;;;;;;;13.59;65.39;99872.09;10349553;28;20045;-58
2023/08/05 02:56:39;;;;;;;3.20;1.67;;;;;;;13.51;65.28;99863.06;10347600;28;20068;-58
2023/08/05 03:01:41;;;;;;;2.78;1.55;;;;;;;13.53;65.60;99863.81;10347957;28;20439;-58
2023/08/05 03:06:43;;;;;;;4.28;1.50;;;;;;;13.63;65.42;99870.91;10344364;28;20042;-58
2023/08/05 03:11:45;;;;;;;2.40;1.48;;;;;;;13.61;65.56;99877.22;10343447;28;20052;-58
2023/08/05 03:16:48;;;;;;;1.45;1.13;;;;;;;13.55;65.67;99877.66;10344571;28;20056;-58
2023/08/05 03:21:53;;;;;;;3.55;1.40;;;;;;;13.46;65.41;99862.56;10343668;28;20081;-58
2023/08/05 03:26:56;;;;;;;3.72;1.20;;;;;;;13.32;65.72;99860.91;10342589;28;20053;-57
2023/08/05 03:31:58;;;;;;;5.05;1.40;;;;;;;13.29;65.75;99857.66;10339261;28;20127;-59
2023/08/05 03:37:01;;;;;;;2.22;1.60;;;;;;;13.25;65.81;99856.22;10342185;28;20042;-60
2023/08/05 03:42:03;;;;;;;5.22;1.40;;;;;;;13.27;65.76;99862.19;10342061;28;20155;-59
2023/08/05 03:47:05;;;;;;;6.32;1.67;;;;;;;13.14;65.72;99864.00;10341138;28;20034;-59
2023/08/05 03:52:08;;;;;;;2.35;1.40;;;;;;;13.03;66.37;99869.19;10341115;28;20049;-59
2023/08/05 03:57:10;;;;;;;2.80;1.70;;;;;;;13.02;66.26;99868.34;10340255;28;20038;-59
2023/08/05 04:02:14;;;;;;;2.45;1.40;;;;;;;13.08;66.21;99867.06;10338581;28;20140;-59
2023/08/05 04:07:19;;;;;;;3.75;1.90;;;;;;;13.16;66.36;99867.34;10341210;28;20224;-59
2023/08/05 04:12:21;;;;;;;4.15;1.98;;;;;;;13.27;66.34;99880.56;10339384;28;20038;-59
2023/08/05 04:17:23;;;;;;;4.55;1.90;;;;;;;13.41;66.40;99880.41;10333425;28;20057;-59
2023/08/05 04:22:26;;;;;;;4.78;2.05;;;;;;;13.57;66.13;99871.34;10339294;28;20498;-59
2023/08/05 04:27:28;;;;;;;4.40;2.20;;;;;;;13.60;66.26;99875.53;10340503;28;20161;-59
2023/08/05 04:32:30;;;;;;;3.72;2.20;;;;;;;13.55;66.25;99891.66;10342659;28;20056;-59
2023/08/05 04:37:32;;;;;;;4.50;2.20;;;;;;;13.59;66.33;99905.41;10342031;28;20753;-59
2023/08/05 04:42:34;;;;;;;4.53;2.60;;;;;;;13.81;66.18;99900.25;10346448;28;20046;-59
2023/08/05 04:47:36;;;;;;;6.05;2.20;;;;;;;13.86;66.00;99890.22;10348963;28;20089;-59
2023/08/05 04:52:39;;;;;;;4.80;2.90;;;;;;;14.03;66.28;99889.81;10351004;28;20571;-59
2023/08/05 04:57:42;;;;;;;3.90;2.15;;;;;;;14.21;66.14;99903.38;10329796;28;20058;-59
2023/08/05 05:02:48;;;;;;;6.55;2.20;;;;;;;14.59;65.77;99893.47;10338146;28;20087;-59
2023/08/05 05:07:50;;;;;;;5.80;2.50;;;;;;;14.80;65.15;99891.78;10337777;28;20038;-59
2023/08/05 05:12:52;;;;;;;5.22;2.58;;;;;;;14.92;65.20;99903.19;10338641;28;20045;-59
2023/08/05 05:17:54;;;;;;;3.78;1.90;;;;;;;15.01;64.90;99905.09;10338989;28;20046;-59
2023/08/05 05:22:57;;;;;;;6.25;2.20;;;;;;;15.07;64.70;99902.81;10336714;28;20091;-60
2023/08/05 05:27:58;;;;;;;4.53;2.28;;;;;;;15.24;64.37;99902.34;10347071;28;20204;-59
2023/08/05 05:33:01;;;;;;;3.95;2.17;;;;;;;15.43;63.93;99910.44;10340648;28;20046;-60
2023/08/05 05:38:03;;;;;;;7.63;2.20;;;;;;;15.52;63.72;99911.53;10346970;28;20046;-59
2023/08/05 05:43:06;;;;;;;5.20;2.50;;;;;;;15.56;63.73;99910.31;10346569;28;20476;-59
2023/08/05 05:48:08;;;;;;;6.53;2.63;;;;;;;15.65;63.87;99901.69;10331293;28;20501;-60
2023/08/05 05:53:13;;;;;;;4.82;2.53;;;;;;;15.68;63.48;99905.84;10342899;28;20049;-59
2023/08/05 05:58:15;;;;;;;4.20;2.25;;;;;;;15.83;63.39;99897.53;10342379;28;20046;-60
2023/08/05 06:03:17;;;;;;;4.72;2.40;;;;;;;15.98;63.18;99877.78;10339053;28;20143;-60
2023/08/05 06:08:36;;;;;;;6.28;2.90;;;;;;;15.96;63.25;99866.53;10529217;27;20462;-59
2023/08/05 06:13:39;;;;;;;7.15;3.75;;;;;;;16.02;63.07;99854.63;10521052;28;20127;-59
2023/08/05 06:18:41;;;;;;;7.47;3.40;;;;;;;16.26;62.68;99854.41;10539155;28;20259;-59
2023/08/05 06:25:03;;;;;;;7.00;3.28;;;;;;;16.22;62.38;99870.47;10525392;27;20202;-60
2023/08/05 06:30:06;;;;;;;6.90;3.45;;;;;;;16.49;62.00;99877.09;10496155;28;20047;-60
2023/08/05 06:35:08;;;;;;;10.05;3.22;;;;;;;16.57;61.94;99861.44;10475247;28;20044;-60
2023/08/05 06:40:11;;;;;;;6.53;3.05;;;;;;;16.62;61.98;99853.94;10496410;28;20049;-61
2023/08/05 06:45:13;;;;;;;7.90;3.92;;;;;;;16.76;61.79;99853.56;10493949;28;20117;-60
2023/08/05 06:50:15;;;;;;;8.48;4.10;;;;;;;16.90;61.09;99847.94;10501505;28;20044;-61
2023/08/05 06:55:18;;;;;;;7.53;3.67;;;;;;;16.93;60.71;99839.75;10494961;28;20040;-60
2023/08/05 07:00:21;;;;;;;8.65;3.42;;;;;;;17.05;60.19;99830.75;10497351;28;20597;-60
2023/08/05 07:05:23;;;;;;;10.70;4.18;;;;;;;16.96;60.52;99836.81;10491606;28;20044;-60
2023/08/05 07:10:25;;;;;;;8.98;3.90;;;;;;;17.03;60.51;99832.69;10478052;28;20064;-60
2023/08/05 07:15:27;;;;;;;7.75;3.55;;;;;;;17.01;60.02;99824.91;10510325;28;20396;-59
2023/08/05 07:20:29;;;;;;;7.40;3.65;;;;;;;16.99;60.33;99828.66;10478338;28;20056;-60
2023/08/05 07:25:31;;;;;;;10.70;3.88;;;;;;;17.13;59.99;99830.06;10476314;28;20135;-61
2023/08/05 07:30:33;;;;;;;7.00;3.17;;;;;;;17.21;60.49;99844.28;10497784;28;20163;-59
2023/08/05 07:35:36;;;;;;;8.02;3.67;;;;;;;17.26;59.88;99831.47;10468785;28;20123;-60
2023/08/05 07:40:39;;;;;;;8.07;3.20;;;;;;;17.54;59.61;99820.16;10451592;28;20044;-59
2023/08/05 07:45:41;;;;;;;9.23;4.07;;;;;;;17.73;59.25;99816.66;10464271;28;20516;-59
2023/08/05 07:50:43;;;;;;;7.57;3.58;;;;;;;18.28;58.28;99804.53;10465473;28;20094;-58
2023/08/05 07:55:45;;;;;;;8.68;3.78;;;;;;;18.63;57.46;99812.59;10482554;28;20090;-59
2023/08/05 08:00:47;;;;;;;7.32;3.33;;;;;;;18.54;57.39;99808.19;10471492;28;20044;-60
2023/08/05 08:05:49;;;;;;;7.25;3.95;;;;;;;18.30;57.58;99802.56;10445462;28;20607;-60
2023/08/05 08:10:52;;;;;;;6.68;3.40;;;;;;;18.20;57.54;99799.09;10472035;28;20450;-60
2023/08/05 08:15:54;;;;;;;8.23;3.20;;;;;;;18.44;57.44;99804.75;10467374;28;20784;-60
2023/08/05 08:20:56;;;;;;;8.07;3.45;;;;;;;18.65;56.37;99768.25;10469261;28;20059;-61
2023/08/05 08:25:59;;;;;;;7.13;3.45;;;;;;;18.94;56.01;99771.59;10466646;28;20048;-60
2023/08/05 08:31:02;;;;;;;8.52;3.63;;;;;;;19.26;55.71;99765.84;10469440;28;20048;-60
2023/08/05 08:36:04;;;;;;;6.75;2.80;;;;;;;19.80;54.60;99770.13;10481720;28;20072;-60
2023/08/05 08:41:07;;;;;;;6.18;3.20;;;;;;;20.42;53.38;99751.31;10469703;28;20056;-61
2023/08/05 08:46:12;;;;;;;6.28;3.40;;;;;;;20.63;52.44;99754.44;10463356;28;20047;-59
2023/08/05 08:51:17;;;;;;;7.03;2.95;;;;;;;21.58;50.00;99746.88;10465713;28;20447;-60
2023/08/05 08:56:19;;;;;;;4.57;2.42;;;;;;;21.70;50.00;99747.38;10462902;28;20520;-59
2023/08/05 09:01:21;;;;;;;4.53;2.53;;;;;;;23.12;45.93;99731.31;10445495;28;20229;-59
2023/08/05 09:06:25;;;;;;;5.63;2.42;;;;;;;23.22;47.84;99730.06;10440899;28;20049;-60
2023/08/05 09:11:28;;;;;;;7.47;2.80;;;;;;;23.22;47.27;99721.22;10465915;28;20665;-61
2023/08/05 09:16:30;;;;;;;4.47;2.55;;;;;;;23.67;46.52;99715.91;10460760;28;20048;-60
2023/08/05 09:21:32;;;;;;;4.53;2.40;;;;;;;23.92;45.81;99708.50;10463888;28;20084;-59
2023/08/05 09:26:35;;;;;;;5.50;2.90;;;;;;;23.92;44.78;99695.16;10464227;28;20045;-60
2023/08/05 09:31:37;;;;;;;3.83;2.28;;;;;;;24.19;44.53;99694.53;10463990;28;20127;-60
2023/08/05 09:36:40;;;;;;;4.43;2.38;;;;;;;24.00;43.25;99698.53;10458739;28;20045;-60
2023/08/05 09:41:52;;;;;;;5.55;2.42;;;;;;;24.23;42.17;99677.94;10438364;28;20076;-60
2023/08/05 09:46:59;;;;;;;4.07;2.30;;;;;;;23.83;42.97;99669.50;10468474;28;20040;-60
2023/08/05 09:52:02;;;;;;;5.47;2.20;;;;;;;23.84;42.77;99652.50;10462457;28;20052;-60
2023/08/05 09:57:09;;;;;;;4.35;2.20;;;;;;;24.39;42.77;99652.03;10460883;28;20492;-60
2023/08/05 10:02:12;;;;;;;3.63;2.17;;;;;;;23.23;42.96;99643.66;10451030;28;20056;-60
2023/08/05 10:07:15;;;;;;;4.70;2.05;;;;;;;22.60;44.90;99637.75;10466633;28;20072;-60
2023/08/05 10:12:21;;;;;;;3.80;2.40;;;;;;;23.06;44.29;99623.47;10466274;28;20118;-60
2023/08/05 10:17:24;;;;;;;5.05;2.00;;;;;;;23.12;43.78;99611.25;10465912;28;20812;-60
2023/08/05 10:22:27;;;;;;;3.63;1.92;;;;;;;23.75;43.53;99614.34;10463744;28;20519;-60
2023/08/05 10:27:40;;;;;;;4.70;1.80;;;;;;;23.74;42.20;99595.81;10467426;28;20445;-60
2023/08/05 10:32:54;;;;;;;3.70;1.90;;;;;;;23.62;42.60;99594.63;10468251;28;20135;-59
2023/08/05 10:38:08;;;;;;;2.85;1.63;;;;;;;23.61;40.85;99591.16;10460927;28;20131;-59
2023/08/05 10:43:10;;;;;;;3.42;1.80;;;;;;;23.22;43.31;99577.16;10463906;28;20055;-59
2023/08/05 10:48:14;;;;;;;2.78;1.75;;;;;;;23.56;42.71;99572.16;10462384;28;20549;-59
2023/08/05 10:53:16;;;;;;;2.90;1.60;;;;;;;23.82;42.70;99561.03;10466978;28;20110;-59
2023/08/05 10:58:23;;;;;;;2.78;1.42;;;;;;;23.63;42.00;99557.09;10467134;28;20041;-59
2023/08/05 11:03:28;;;;;;;2.40;1.30;;;;;;;23.67;41.01;99553.03;10445025;28;20045;-59
2023/08/05 11:08:32;;;;;;;1.77;1.25;;;;;;;23.29;41.08;99535.38;10470652;28;20049;-59
2023/08/05 11:13:37;;;;;;;2.47;1.48;;;;;;;23.09;41.37;99531.56;10458156;28;20048;-59
2023/08/05 11:18:44;;;;;;;2.03;1.23;;;;;;;23.48;40.39;99517.03;10475868;28;20098;-59
2023/08/05 11:23:46;;;;;;;3.08;1.40;;;;;;;23.51;40.83;99518.53;10475619;28;20416;-59
2023/08/05 11:28:48;;;;;;;1.67;1.05;;;;;;;23.92;40.18;99508.16;10475141;28;20314;-60
2023/08/05 11:33:51;;;;;;;2.60;1.25;;;;;;;24.21;39.27;99497.41;10474936;28;20068;-58
2023/08/05 11:38:57;;;;;;;3.83;1.20;;;;;;;24.21;38.89;99497.41;10454995;28;20075;-58
2023/08/05 11:43:59;;;;;;;2.47;1.35;;;;;;;24.46;38.83;99488.03;10474203;28;20056;-58
2023/08/05 11:49:09;;;;;;;1.30;1.00;;;;;;;24.53;37.31;99486.22;10474434;28;20132;-58
2023/08/05 11:54:11;;;;;;;1.95;1.13;;;;;;;24.33;38.80;99484.41;10475134;28;20080;-58
2023/08/05 11:59:13;;;;;;;2.42;1.13;;;;;;;24.21;39.04;99471.53;10473884;28;20174;-58
2023/08/05 12:04:15;;;;;;;1.73;1.25;;;;;;;24.59;38.69;99465.94;10474286;28;20102;-59
2023/08/05 12:09:17;;;;;;;1.85;1.30;;;;;;;24.61;39.00;99466.56;10473338;28;20131;-58
2023/08/05 12:14:19;;;;;;;1.73;1.15;;;;;;;24.60;39.36;99470.25;10454498;28;20307;-59
2023/08/05 12:19:21;;;;;;;3.65;1.40;;;;;;;24.52;38.67;99465.88;10472679;28;20041;-58
2023/08/05 12:24:23;;;;;;;2.80;1.20;;;;;;;24.18;39.26;99458.53;10473354;28;20554;-59
2023/08/05 12:29:25;;;;;;;1.73;1.20;;;;;;;24.35;38.78;99448.44;10454544;28;20500;-58
2023/08/05 12:34:27;;;;;;;2.60;1.30;;;;;;;24.02;39.47;99453.41;10472705;28;20153;-59
2023/08/05 12:39:29;;;;;;;2.88;1.30;;;;;;;24.03;39.58;99447.06;10472889;28;20504;-59
2023/08/05 12:44:31;;;;;;;1.63;1.17;;;;;;;24.26;39.42;99434.38;10453828;28;20106;-59
2023/08/05 12:49:36;;;;;;;1.98;1.17;;;;;;;24.45;38.83;99419.53;10471838;28;20076;-59
2023/08/05 12:54:38;;;;;;;1.17;1.00;;;;;;;24.41;38.71;99415.59;10472066;28;20060;-59
2023/08/05 12:59:40;;;;;;;1.70;1.05;;;;;;;24.31;39.11;99403.59;10471436;28;20061;-59
2023/08/05 13:04:42;;;;;;;1.27;1.00;;;;;;;24.59;39.08;99405.25;10453814;28;20519;-59
2023/08/05 13:09:45;;;;;;;2.55;1.25;;;;;;;24.99;38.93;99380.47;10470932;28;20045;-60
2023/08/05 13:14:47;;;;;;;2.40;1.17;;;;;;;25.03;38.39;99373.72;10470787;28;20082;-59
2023/08/05 13:19:49;;;;;;;1.50;1.10;;;;;;;25.56;37.68;99372.13;10470868;28;20086;-59
2023/08/05 13:24:51;;;;;;;1.58;1.02;;;;;;;25.72;37.30;99358.34;10470127;28;20504;-59
2023/08/05 13:29:53;;;;;;;1.17;0.90;;;;;;;25.45;37.34;99353.94;10451477;28;20041;-59
2023/08/05 13:34:55;;;;;;;2.78;1.38;;;;;;;25.62;37.69;99341.84;10470554;28;20048;-58
2023/08/05 13:39:57;;;;;;;1.02;0.88;;;;;;;25.43;37.10;99334.56;10469972;28;20127;-59
2023/08/05 13:44:59;;;;;;;1.40;0.90;;;;;;;24.67;37.95;99329.41;10484806;28;20041;-59
2023/08/05 13:50:01;;;;;;;1.00;0.90;;;;;;;24.58;37.83;99320.72;10469619;28;20071;-59
2023/08/05 13:55:04;;;;;;;0.93;0.88;;;;;;;24.75;38.04;99310.56;10469451;28;20051;-59
2023/08/05 14:00:06;;;;;;;1.38;0.85;;;;;;;24.87;37.80;99315.19;10469762;28;20052;-59
2023/08/05 14:05:12;;;;;;;1.25;0.88;;;;;;;24.98;36.01;99300.38;10469326;28;20048;-59
2023/08/05 14:10:14;;;;;;;1.10;1.00;;;;;;;25.04;36.78;99286.22;10469044;28;20123;-59
2023/08/05 14:15:17;;;;;;;1.25;0.95;;;;;;;25.00;36.58;99279.59;10469155;28;20048;-59
2023/08/05 14:20:19;;;;;;;1.10;1.00;;;;;;;25.16;36.31;99265.91;10468926;28;20048;-58
2023/08/05 14:25:21;;;;;;;0.90;0.90;;;;;;;25.32;35.76;99268.22;10468296;28;20527;-59
2023/08/05 14:30:23;;;;;;;1.95;0.85;;;;;;;25.37;36.37;99244.34;10449729;28;20275;-59
2023/08/05 14:35:33;;;;;;;1.20;0.97;;;;;;;24.97;36.33;99250.59;10469221;28;20043;-59
2023/08/05 14:40:36;;;;;;;1.20;0.90;;;;;;;24.73;37.19;99251.13;10483436;28;20471;-59
2023/08/05 14:45:39;;;;;;;0.77;0.77;;;;;;;24.58;37.33;99234.34;10474565;28;20496;-59
2023/08/05 14:50:41;;;;;;;1.40;1.17;;;;;;;24.58;37.26;99221.78;10476946;28;20072;-59
2023/08/05 14:55:54;;;;;;;1.92;1.10;;;;;;;24.59;36.76;99222.63;10476776;28;20121;-59
2023/08/05 15:00:56;;;;;;;1.17;1.00;;;;;;;24.05;37.46;99217.13;10457684;28;20045;-59
2023/08/05 15:05:58;;;;;;;1.52;1.13;;;;;;;23.91;38.03;99216.19;10475855;28;20083;-59
2023/08/05 15:11:00;;;;;;;1.20;1.00;;;;;;;23.97;37.81;99215.44;10476512;28;20118;-59
2023/08/05 15:16:03;;;;;;;1.85;1.20;;;;;;;23.95;37.76;99201.44;10474861;28;20044;-59
2023/08/05 15:21:05;;;;;;;1.65;0.90;;;;;;;24.17;37.81;99211.06;10474650;28;20044;-59
2023/08/05 15:26:08;;;;;;;1.27;1.10;;;;;;;23.92;37.61;99217.03;10456814;28;20131;-59
2023/08/05 15:31:20;;;;;;;1.67;1.15;;;;;;;23.34;37.74;99221.63;10474681;28;20957;-59
2023/08/05 15:36:22;;;;;;;1.13;1.00;;;;;;;22.73;39.86;99223.97;10473930;28;20060;-59
2023/08/05 15:41:24;;;;;;;1.17;1.00;;;;;;;22.16;40.97;99235.28;10474354;28;20050;-59
2023/08/05 15:46:28;;;;;;;1.33;1.00;;;;;;;21.73;43.29;99250.13;10473744;28;20052;-59
2023/08/05 15:51:32;;;;;;;1.05;0.95;;;;;;;20.97;46.34;99258.06;10455775;28;20044;-59
2023/08/05 15:56:34;;;;;;;1.45;0.82;;;;;;;20.62;47.37;99263.84;10455129;28;20139;-59
2023/08/05 16:01:36;;;;;;;4.07;1.08;;;;;;;20.30;48.88;99253.31;10473552;28;20555;-59
2023/08/05 16:06:50;;;;;;;1.58;1.15;;;;;;;20.07;49.70;99253.19;10473286;28;20129;-59
2023/08/05 16:11:52;;;;;;;1.77;1.25;;;;;;;19.87;50.82;99266.97;10473437;28;20514;-59
2023/08/05 16:16:55;;;;;;;2.45;1.20;;;;;;;19.60;52.24;99264.63;10472825;28;20060;-59
2023/08/05 16:21:57;;;;;;;1.48;0.93;;;;;;;19.26;53.33;99262.91;10487791;28;20052;-59
2023/08/05 16:27:04;;;;;;;1.95;0.95;;;;;;;19.40;52.66;99264.09;10472599;28;20041;-59
2023/08/05 16:32:06;;;;;;;1.40;0.90;;;;;;;19.39;52.71;99257.97;10437469;28;20414;-59
2023/08/05 16:37:08;;;;;;;0.90;0.85;;;;;;;19.35;52.98;99251.34;10472321;28;20052;-59
2023/08/05 16:42:10;;;;;;;0.88;0.85;;;;;;;19.34;53.14;99240.88;10471709;28;20067;-59
2023/08/05 16:47:12;;;;;;;3.30;1.30;;;;;;;19.36;53.58;99237.06;10453432;28;20122;-59
2023/08/05 16:52:14;;;;;;;2.30;1.20;;;;;;;19.31;54.37;99228.78;10471378;28;20620;-59
2023/08/05 16:57:16;;;;;;;2.70;1.00;;;;;;;19.21;54.59;99211.38;10452491;28;20139;-59
2023/08/05 17:02:18;;;;;;;1.42;1.00;;;;;;;18.99;54.87;99210.13;10468931;28;20455;-59
2023/08/05 17:07:21;;;;;;;2.40;1.13;;;;;;;18.91;55.01;99217.25;10470061;28;20044;-59
2023/08/05 17:12:23;;;;;;;1.35;1.15;;;;;;;18.77;55.32;99225.81;10451986;28;20056;-59
2023/08/05 17:17:25;;;;;;;1.67;1.25;;;;;;;18.80;55.97;99217.53;10470114;28;20299;-59
2023/08/05 17:22:27;;;;;;;1.38;1.00;;;;;;;18.79;55.96;99210.59;10451692;28;20401;-59
2023/08/05 17:27:29;;;;;;;1.95;1.20;;;;;;;18.82;56.76;99204.97;10470126;28;20140;-59
2023/08/05 17:32:31;;;;;;;1.83;1.10;;;;;;;18.78;57.11;99219.50;10484511;28;20712;-59
2023/08/05 17:37:33;;;;;;;1.33;1.00;;;;;;;18.82;57.51;99219.03;10450420;28;20194;-59
2023/08/05 17:42:35;;;;;;;4.60;2.17;;;;;;;18.90;57.46;99207.63;10468414;28;20052;-59
2023/08/05 17:47:37;;;;;;;1.63;1.20;;;;;;;18.78;57.65;99200.97;10450554;28;20046;-59
2023/08/05 17:52:39;;;;;;;1.75;1.23;;;;;;;18.85;58.29;99202.00;10450828;28;20511;-59
2023/08/05 17:57:42;;;;;;;2.33;1.10;;;;;;;18.98;57.97;99200.53;10450887;28;20489;-59
2023/08/05 18:02:44;;;;;;;1.50;1.10;;;;;;;18.97;57.83;99198.06;10467736;28;20496;-59
2023/08/05 18:07:46;;;;;;;1.95;1.30;;;;;;;18.90;58.13;99197.88;10468601;28;20041;-59
2023/08/05 18:12:48;;;;;;;3.25;1.00;;;;;;;18.80;58.99;99197.19;10467914;28;20057;-59
2023/08/05 18:17:50;;;;;;;1.70;1.20;;;;;;;18.68;59.24;99198.47;10467653;28;20049;-59
2023/08/05 18:22:52;;;;;;;1.52;1.10;;;;;;;18.58;59.71;99189.81;10468082;28;20147;-59
2023/08/05 18:27:55;;;;;;;1.88;1.30;;;;;;;18.59;59.93;99202.06;10449405;28;20393;-59
2023/08/05 18:32:57;;;;;;;1.52;1.20;;;;;;;18.60;59.12;99190.50;10465321;28;20423;-59
2023/08/05 18:37:59;;;;;;;2.25;1.10;;;;;;;18.36;59.82;99177.97;10468582;28;20044;-59
2023/08/05 18:43:01;;;;;;;1.63;1.17;;;;;;;18.21;59.67;99169.00;10466146;28;21014;-59
2023/08/05 18:48:03;;;;;;;1.45;1.20;;;;;;;18.26;59.66;99169.31;10467535;28;20051;-59
2023/08/05 18:53:06;;;;;;;2.35;1.38;;;;;;;18.14;60.53;99172.38;10466809;28;20095;-60
2023/08/05 18:58:08;;;;;;;1.52;1.17;;;;;;;18.10;61.09;99176.31;10467111;28;20495;-60
2023/08/05 19:03:11;;;;;;;1.58;1.30;;;;;;;17.95;61.58;99172.63;10447035;28;20162;-59
2023/08/05 19:08:13;;;;;;;2.08;1.23;;;;;;;17.99;61.75;99164.22;10433021;28;20124;-60
2023/08/05 19:13:15;;;;;;;7.15;2.13;;;;;;;18.04;61.94;99179.59;10468249;28;20121;-60
2023/08/05 19:18:17;;;;;;;2.90;1.90;;;;;;;17.99;61.90;99173.97;10450710;28;20609;-59
2023/08/05 19:23:19;;;;;;;4.28;2.28;;;;;;;17.98;62.46;99174.94;10448609;28;20060;-59
2023/08/05 19:28:21;;;;;;;3.78;1.90;;;;;;;17.88;61.92;99172.41;10432927;28;20401;-59
2023/08/05 19:33:23;;;;;;;2.20;1.60;;;;;;;17.88;62.20;99163.63;10475257;28;20047;-59
2023/08/05 19:38:24;;;;;;;2.97;1.70;;;;;;;17.54;62.52;99169.72;10474581;28;20148;-59
2023/08/05 19:43:26;;;;;;;4.07;2.00;;;;;;;17.33;63.17;99174.47;10475095;28;20145;-59
2023/08/05 19:48:29;;;;;;;2.40;1.52;;;;;;;17.27;63.18;99169.78;10474193;28;20045;-59
2023/08/05 19:53:31;;;;;;;2.72;1.65;;;;;;;17.37;62.92;99162.63;10474313;28;20129;-59
2023/08/05 19:58:34;;;;;;;3.92;1.40;;;;;;;17.39;62.43;99165.94;10473559;28;20269;-59
2023/08/05 20:03:37;;;;;;;1.83;1.40;;;;;;;17.18;63.16;99160.09;10474078;28;20052;-59
2023/08/05 20:08:39;;;;;;;3.22;1.50;;;;;;;17.19;63.03;99143.28;10473881;28;20052;-59
2023/08/05 20:13:41;;;;;;;2.50;1.40;;;;;;;17.14;62.99;99142.09;10439162;28;20052;-59
2023/08/05 20:18:44;;;;;;;2.50;1.50;;;;;;;17.23;63.09;99127.94;10455494;28;20127;-60
2023/08/05 20:23:46;;;;;;;2.10;1.30;;;;;;;17.22;63.08;99127.09;10472872;28;20561;-59
2023/08/05 20:28:49;;;;;;;2.45;1.60;;;;;;;17.08;63.60;99132.13;10454746;28;20159;-59
2023/08/05 20:33:51;;;;;;;4.88;1.83;;;;;;;16.98;63.95;99121.63;10472366;28;20047;-60
2023/08/05 20:38:53;;;;;;;1.92;1.30;;;;;;;16.89;63.62;99120.75;10473392;28;20074;-60
2023/08/05 20:43:55;;;;;;;1.77;1.20;;;;;;;16.54;63.91;99111.94;10472329;28;20443;-60
2023/08/05 20:48:57;;;;;;;2.78;1.50;;;;;;;16.33;64.21;99109.53;10472408;28;20040;-60
2023/08/05 20:53:59;;;;;;;1.67;1.30;;;;;;;16.36;64.50;99109.25;10470932;28;20136;-59
2023/08/05 20:59:02;;;;;;;2.40;1.70;;;;;;;16.42;64.61;99099.91;10471118;28;20044;-60
2023/08/05 21:04:04;;;;;;;2.17;1.40;;;;;;;16.49;64.77;99087.81;10471189;28;20048;-60
2023/08/05 21:09:06;;;;;;;1.40;1.10;;;;;;;16.31;64.39;99087.75;10470827;28;20703;-60
2023/08/05 21:14:08;;;;;;;2.72;1.35;;;;;;;16.15;65.13;99082.28;10452298;28;20484;-60
2023/08/05 21:19:10;;;;;;;4.93;1.55;;;;;;;16.31;65.03;99060.53;10470160;28;20557;-59
2023/08/05 21:24:12;;;;;;;5.65;2.38;;;;;;;16.45;64.84;99065.31;10436787;28;20357;-60
2023/08/05 21:29:18;;;;;;;1.95;1.27;;;;;;;16.42;64.44;99058.53;10460451;28;20043;-59
2023/08/05 21:34:21;;;;;;;2.22;1.30;;;;;;;16.30;65.00;99054.44;10450713;28;20055;-59
2023/08/05 21:39:23;;;;;;;1.90;1.23;;;;;;;16.31;64.71;99049.97;10473186;28;20083;-59
2023/08/05 21:44:25;;;;;;;4.85;1.60;;;;;;;16.25;64.96;99035.56;10443316;28;20838;-59
2023/08/05 21:49:27;;;;;;;2.45;1.33;;;;;;;16.36;65.12;99026.63;10456622;28;20135;-58
2023/08/05 21:54:29;;;;;;;3.97;1.52;;;;;;;16.46;64.76;99027.41;10468724;28;20151;-59
2023/08/05 21:59:30;;;;;;;4.72;1.67;;;;;;;16.46;64.88;99033.53;10469624;28;20510;-59
2023/08/05 22:04:32;;;;;;;3.35;1.50;;;;;;;16.47;64.64;99026.44;10468890;28;20515;-59
2023/08/05 22:09:34;;;;;;;1.95;1.30;;;;;;;16.49;64.32;99009.44;10484038;28;20044;-58
2023/08/05 22:14:37;;;;;;;2.60;1.20;;;;;;;16.45;64.42;99010.72;10469624;28;20127;-58
2023/08/05 22:19:39;;;;;;;2.70;1.48;;;;;;;16.48;64.22;99005.16;10483690;28;20068;-59
2023/08/05 22:24:42;;;;;;;3.25;1.40;;;;;;;16.53;64.36;99002.09;10468821;28;20052;-58
2023/08/05 22:29:44;;;;;;;2.05;1.50;;;;;;;16.48;64.57;99005.16;10468934;28;20040;-59
2023/08/05 22:34:46;;;;;;;1.95;1.33;;;;;;;16.46;64.28;98988.66;10450147;28;20379;-59
2023/08/05 22:39:48;;;;;;;4.90;1.55;;;;;;;16.43;63.96;98981.03;10468151;28;20067;-59
2023/08/05 22:44:52;;;;;;;6.18;1.60;;;;;;;16.45;64.17;98979.06;10468825;28;20063;-60
2023/08/05 22:49:54;;;;;;;1.88;1.27;;;;;;;16.43;64.10;98975.75;10468584;28;20049;-59
2023/08/05 22:54:56;;;;;;;1.75;1.10;;;;;;;16.48;63.85;98965.56;10449715;28;20127;-59
2023/08/05 22:59:58;;;;;;;1.90;1.30;;;;;;;16.28;63.98;98957.94;10468994;28;20045;-59
2023/08/05 23:05:00;;;;;;;1.60;1.13;;;;;;;16.21;64.22;98947.97;10471438;28;20127;-59
2023/08/05 23:10:02;;;;;;;2.28;1.25;;;;;;;16.16;64.09;98958.16;10476451;28;20045;-59
2023/08/05 23:15:05;;;;;;;1.70;1.00;;;;;;;15.91;64.12;98958.91;10476199;28;20401;-59
2023/08/05 23:20:07;;;;;;;2.63;1.30;;;;;;;15.60;64.54;98949.63;10475727;28;20076;-60
2023/08/05 23:25:09;;;;;;;2.38;1.17;;;;;;;15.45;65.23;98961.59;10475015;28;20512;-60